sensor_id;sensor_type;location;lat;lon;timestamp;P1;durP1;ratioP1;P2;durP2;ratioP2
24771;SDS011;12870;52.274;9.754;2023-02-28T00:00:20;0.30;;;0.30;;
24771;SDS011;12870;52.274;9.754;2023-02-28T00:02:47;0.30;;;0.30;;
24771;SDS011;12870;52.274;9.754;2023-02-28T00:05:14;0.30;;;0.30;;
24771;SDS011;12870;52.274;9.754;2023-02-28T00:07:45;0.30;;;0.30;;
24771;SDS011;12870;52.274;9.754;2023-02-28T00:10:12;0.30;;;0.30;;
24771;SDS011;12870;52.274;9.754;2023-02-28T00:12:39;0.30;;;0.30;;
24771;SDS011;12870;52.274;9.754;2023-02-28T00:15:06;0.30;;;0.30;;
24771;SDS011;12870;52.274;9.754;2023-02-28T00:17:36;0.30;;;0.30;;
24771;SDS011;12870;52.274;9.754;2023-02-28T00:20:02;0.30;;;0.30;;
24771;SDS011;12870;52.274;9.754;2023-02-28T00:22:29;0.30;;;0.30;;
24771;SDS011;12870;52.274;9.754;2023-02-28T00:24:55;0.30;;;0.30;;
24771;SDS011;12870;52.274;9.754;2023-02-28T00:27:21;0.30;;;0.30;;
24771;SDS011;12870;52.274;9.754;2023-02-28T00:29:47;0.30;;;0.30;;
24771;SDS011;12870;52.274;9.754;2023-02-28T00:32:13;0.30;;;0.30;;
24771;SDS011;12870;52.274;9.754;2023-02-28T00:34:38;0.37;;;0.37;;
24771;SDS011;12870;52.274;9.754;2023-02-28T00:37:05;0.30;;;0.30;;
24771;SDS011;12870;52.274;9.754;2023-02-28T00:39:31;0.30;;;0.30;;
24771;SDS011;12870;52.274;9.754;2023-02-28T00:42:01;0.30;;;0.30;;
24771;SDS011;12870;52.274;9.754;2023-02-28T00:44:28;0.30;;;0.30;;
24771;SDS011;12870;52.274;9.754;2023-02-28T00:46:54;0.30;;;0.30;;
24771;SDS011;12870;52.274;9.754;2023-02-28T00:49:21;0.30;;;0.30;;
24771;SDS011;12870;52.274;9.754;2023-02-28T00:51:48;0.30;;;0.30;;
24771;SDS011;12870;52.274;9.754;2023-02-28T00:54:14;0.30;;;0.30;;
24771;SDS011;12870;52.274;9.754;2023-02-28T00:56:40;0.30;;;0.30;;
24771;SDS011;12870;52.274;9.754;2023-02-28T00:59:05;0.30;;;0.30;;
24771;SDS011;12870;52.274;9.754;2023-02-28T01:01:31;0.30;;;0.30;;
24771;SDS011;12870;52.274;9.754;2023-02-28T01:03:57;0.30;;;0.30;;
24771;SDS011;12870;52.274;9.754;2023-02-28T01:06:23;0.30;;;0.30;;
24771;SDS011;12870;52.274;9.754;2023-02-28T01:08:49;0.30;;;0.30;;
24771;SDS011;12870;52.274;9.754;2023-02-28T01:11:16;0.30;;;0.30;;
24771;SDS011;12870;52.274;9.754;2023-02-28T01:13:42;0.30;;;0.30;;
24771;SDS011;12870;52.274;9.754;2023-02-28T01:16:09;0.30;;;0.30;;
24771;SDS011;12870;52.274;9.754;2023-02-28T01:18:35;0.40;;;0.40;;
24771;SDS011;12870;52.274;9.754;2023-02-28T01:21:05;0.30;;;0.30;;
24771;SDS011;12870;52.274;9.754;2023-02-28T01:23:32;0.30;;;0.30;;
24771;SDS011;12870;52.274;9.754;2023-02-28T01:26:02;0.40;;;0.40;;
24771;SDS011;12870;52.274;9.754;2023-02-28T01:28:32;0.30;;;0.30;;
24771;SDS011;12870;52.274;9.754;2023-02-28T01:30:58;0.40;;;0.40;;
24771;SDS011;12870;52.274;9.754;2023-02-28T01:33:24;0.40;;;0.40;;
24771;SDS011;12870;52.274;9.754;2023-02-28T01:35:56;0.30;;;0.30;;
24771;SDS011;12870;52.274;9.754;2023-02-28T01:38:23;0.30;;;0.30;;
24771;SDS011;12870;52.274;9.754;2023-02-28T01:40:49;0.30;;;0.30;;
24771;SDS011;12870;52.274;9.754;2023-02-28T01:43:31;0.30;;;0.30;;
24771;SDS011;12870;52.274;9.754;2023-02-28T01:46:17;0.30;;;0.30;;
24771;SDS011;12870;52.274;9.754;2023-02-28T01:48:46;0.40;;;0.40;;
24771;SDS011;12870;52.274;9.754;2023-02-28T01:51:18;0.30;;;0.30;;
24771;SDS011;12870;52.274;9.754;2023-02-28T01:53:48;0.40;;;0.40;;
24771;SDS011;12870;52.274;9.754;2023-02-28T01:56:21;0.40;;;0.40;;
24771;SDS011;12870;52.274;9.754;2023-02-28T01:58:51;0.30;;;0.30;;
24771;SDS011;12870;52.274;9.754;2023-02-28T02:01:19;0.33;;;0.33;;
24771;SDS011;12870;52.274;9.754;2023-02-28T02:03:53;0.30;;;0.30;;
24771;SDS011;12870;52.274;9.754;2023-02-28T02:06:22;0.40;;;0.40;;
24771;SDS011;12870;52.274;9.754;2023-02-28T02:08:49;0.30;;;0.30;;
24771;SDS011;12870;52.274;9.754;2023-02-28T02:11:17;0.30;;;0.30;;
24771;SDS011;12870;52.274;9.754;2023-02-28T02:19:21;0.40;;;0.40;;
24771;SDS011;12870;52.274;9.754;2023-02-28T02:41:19;0.40;;;0.40;;
24771;SDS011;12870;52.274;9.754;2023-02-28T02:47:03;0.40;;;0.40;;
24771;SDS011;12870;52.274;9.754;2023-02-28T02:49:39;0.40;;;0.40;;
24771;SDS011;12870;52.274;9.754;2023-02-28T02:52:11;0.40;;;0.40;;
24771;SDS011;12870;52.274;9.754;2023-02-28T02:54:41;0.40;;;0.40;;
24771;SDS011;12870;52.274;9.754;2023-02-28T02:57:11;0.40;;;0.40;;
24771;SDS011;12870;52.274;9.754;2023-02-28T02:59:42;0.40;;;0.40;;
24771;SDS011;12870;52.274;9.754;2023-02-28T03:02:11;0.40;;;0.40;;
24771;SDS011;12870;52.274;9.754;2023-02-28T03:04:43;0.40;;;0.40;;
24771;SDS011;12870;52.274;9.754;2023-02-28T03:07:13;0.40;;;0.40;;
24771;SDS011;12870;52.274;9.754;2023-02-28T03:09:39;0.40;;;0.40;;
24771;SDS011;12870;52.274;9.754;2023-02-28T03:12:06;0.40;;;0.40;;
24771;SDS011;12870;52.274;9.754;2023-02-28T03:17:29;0.40;;;0.40;;
24771;SDS011;12870;52.274;9.754;2023-02-28T03:30:51;0.40;;;0.40;;
24771;SDS011;12870;52.274;9.754;2023-02-28T03:33:39;0.40;;;0.40;;
24771;SDS011;12870;52.274;9.754;2023-02-28T03:36:28;0.40;;;0.40;;
24771;SDS011;12870;52.274;9.754;2023-02-28T03:38:58;0.40;;;0.40;;
24771;SDS011;12870;52.274;9.754;2023-02-28T03:41:36;0.40;;;0.40;;
24771;SDS011;12870;52.274;9.754;2023-02-28T03:44:16;0.40;;;0.40;;
24771;SDS011;12870;52.274;9.754;2023-02-28T03:46:48;0.40;;;0.40;;
24771;SDS011;12870;52.274;9.754;2023-02-28T03:49:25;0.40;;;0.40;;
24771;SDS011;12870;52.274;9.754;2023-02-28T03:51:56;0.40;;;0.40;;
24771;SDS011;12870;52.274;9.754;2023-02-28T03:54:27;0.40;;;0.40;;
24771;SDS011;12870;52.274;9.754;2023-02-28T03:59:59;0.40;;;0.40;;
24771;SDS011;12870;52.274;9.754;2023-02-28T04:02:38;0.40;;;0.40;;
24771;SDS011;12870;52.274;9.754;2023-02-28T04:05:04;0.40;;;0.40;;
24771;SDS011;12870;52.274;9.754;2023-02-28T04:07:31;0.40;;;0.40;;
24771;SDS011;12870;52.274;9.754;2023-02-28T04:09:57;0.40;;;0.40;;
24771;SDS011;12870;52.274;9.754;2023-02-28T04:12:24;0.40;;;0.40;;
24771;SDS011;12870;52.274;9.754;2023-02-28T04:14:50;0.40;;;0.40;;
24771;SDS011;12870;52.274;9.754;2023-02-28T04:17:16;0.40;;;0.40;;
24771;SDS011;12870;52.274;9.754;2023-02-28T04:19:42;0.33;;;0.33;;
24771;SDS011;12870;52.274;9.754;2023-02-28T04:22:08;0.40;;;0.40;;
24771;SDS011;12870;52.274;9.754;2023-02-28T04:24:34;0.40;;;0.40;;
24771;SDS011;12870;52.274;9.754;2023-02-28T04:27:00;0.40;;;0.40;;
24771;SDS011;12870;52.274;9.754;2023-02-28T04:29:30;0.40;;;0.40;;
24771;SDS011;12870;52.274;9.754;2023-02-28T04:31:57;0.40;;;0.40;;
24771;SDS011;12870;52.274;9.754;2023-02-28T04:34:24;0.40;;;0.40;;
24771;SDS011;12870;52.274;9.754;2023-02-28T04:36:51;0.40;;;0.40;;
24771;SDS011;12870;52.274;9.754;2023-02-28T04:39:19;0.40;;;0.40;;
24771;SDS011;12870;52.274;9.754;2023-02-28T04:41:46;0.40;;;0.40;;
24771;SDS011;12870;52.274;9.754;2023-02-28T04:44:12;0.40;;;0.40;;
24771;SDS011;12870;52.274;9.754;2023-02-28T04:46:38;0.40;;;0.40;;
24771;SDS011;12870;52.274;9.754;2023-02-28T04:49:04;0.40;;;0.40;;
24771;SDS011;12870;52.274;9.754;2023-02-28T04:51:29;0.40;;;0.40;;
24771;SDS011;12870;52.274;9.754;2023-02-28T04:53:55;0.43;;;0.43;;
24771;SDS011;12870;52.274;9.754;2023-02-28T04:56:21;0.40;;;0.40;;
24771;SDS011;12870;52.274;9.754;2023-02-28T04:58:47;0.40;;;0.40;;
24771;SDS011;12870;52.274;9.754;2023-02-28T05:01:20;0.40;;;0.40;;
24771;SDS011;12870;52.274;9.754;2023-02-28T05:03:49;0.40;;;0.40;;
24771;SDS011;12870;52.274;9.754;2023-02-28T05:06:15;0.40;;;0.40;;
24771;SDS011;12870;52.274;9.754;2023-02-28T05:08:41;0.47;;;0.47;;
24771;SDS011;12870;52.274;9.754;2023-02-28T05:11:12;0.40;;;0.40;;
24771;SDS011;12870;52.274;9.754;2023-02-28T05:13:45;0.40;;;0.40;;
24771;SDS011;12870;52.274;9.754;2023-02-28T05:16:11;0.40;;;0.40;;
24771;SDS011;12870;52.274;9.754;2023-02-28T05:18:37;0.40;;;0.40;;
24771;SDS011;12870;52.274;9.754;2023-02-28T05:21:03;0.40;;;0.40;;
24771;SDS011;12870;52.274;9.754;2023-02-28T05:23:29;0.40;;;0.40;;
24771;SDS011;12870;52.274;9.754;2023-02-28T05:25:54;0.40;;;0.40;;
24771;SDS011;12870;52.274;9.754;2023-02-28T05:28:20;0.40;;;0.40;;
24771;SDS011;12870;52.274;9.754;2023-02-28T05:30:46;0.40;;;0.40;;
24771;SDS011;12870;52.274;9.754;2023-02-28T05:33:12;0.40;;;0.40;;
24771;SDS011;12870;52.274;9.754;2023-02-28T05:35:39;0.50;;;0.50;;
24771;SDS011;12870;52.274;9.754;2023-02-28T05:38:05;0.40;;;0.40;;
24771;SDS011;12870;52.274;9.754;2023-02-28T05:40:31;0.40;;;0.40;;
24771;SDS011;12870;52.274;9.754;2023-02-28T05:42:57;0.40;;;0.40;;
24771;SDS011;12870;52.274;9.754;2023-02-28T05:45:23;0.40;;;0.40;;
24771;SDS011;12870;52.274;9.754;2023-02-28T05:47:48;0.40;;;0.40;;
24771;SDS011;12870;52.274;9.754;2023-02-28T05:50:18;0.50;;;0.50;;
24771;SDS011;12870;52.274;9.754;2023-02-28T05:52:43;0.40;;;0.40;;
24771;SDS011;12870;52.274;9.754;2023-02-28T05:55:09;0.40;;;0.40;;
24771;SDS011;12870;52.274;9.754;2023-02-28T05:57:35;0.40;;;0.40;;
24771;SDS011;12870;52.274;9.754;2023-02-28T06:00:00;0.40;;;0.40;;
24771;SDS011;12870;52.274;9.754;2023-02-28T06:02:27;0.40;;;0.40;;
24771;SDS011;12870;52.274;9.754;2023-02-28T06:04:53;0.40;;;0.40;;
24771;SDS011;12870;52.274;9.754;2023-02-28T06:07:18;0.40;;;0.40;;
24771;SDS011;12870;52.274;9.754;2023-02-28T06:09:44;0.40;;;0.40;;
24771;SDS011;12870;52.274;9.754;2023-02-28T06:12:10;0.40;;;0.40;;
24771;SDS011;12870;52.274;9.754;2023-02-28T06:14:35;0.40;;;0.40;;
24771;SDS011;12870;52.274;9.754;2023-02-28T06:17:01;0.40;;;0.40;;
24771;SDS011;12870;52.274;9.754;2023-02-28T06:19:28;0.40;;;0.40;;
24771;SDS011;12870;52.274;9.754;2023-02-28T06:21:55;0.40;;;0.40;;
24771;SDS011;12870;52.274;9.754;2023-02-28T06:24:22;0.40;;;0.40;;
24771;SDS011;12870;52.274;9.754;2023-02-28T06:29:16;0.40;;;0.40;;
24771;SDS011;12870;52.274;9.754;2023-02-28T06:31:44;0.40;;;0.40;;
24771;SDS011;12870;52.274;9.754;2023-02-28T06:34:10;0.40;;;0.40;;
24771;SDS011;12870;52.274;9.754;2023-02-28T06:36:37;0.40;;;0.40;;
24771;SDS011;12870;52.274;9.754;2023-02-28T06:39:04;0.40;;;0.40;;
24771;SDS011;12870;52.274;9.754;2023-02-28T06:41:30;0.40;;;0.40;;
24771;SDS011;12870;52.274;9.754;2023-02-28T06:43:56;0.40;;;0.40;;
24771;SDS011;12870;52.274;9.754;2023-02-28T06:46:22;0.40;;;0.40;;
24771;SDS011;12870;52.274;9.754;2023-02-28T06:48:48;0.50;;;0.50;;
24771;SDS011;12870;52.274;9.754;2023-02-28T06:51:15;0.40;;;0.40;;
24771;SDS011;12870;52.274;9.754;2023-02-28T06:53:45;0.40;;;0.40;;
24771;SDS011;12870;52.274;9.754;2023-02-28T06:56:12;0.40;;;0.40;;
24771;SDS011;12870;52.274;9.754;2023-02-28T06:58:40;0.40;;;0.40;;
24771;SDS011;12870;52.274;9.754;2023-02-28T07:01:06;0.40;;;0.40;;
24771;SDS011;12870;52.274;9.754;2023-02-28T07:03:34;0.40;;;0.40;;
24771;SDS011;12870;52.274;9.754;2023-02-28T07:06:00;0.40;;;0.40;;
24771;SDS011;12870;52.274;9.754;2023-02-28T07:08:26;0.40;;;0.40;;
24771;SDS011;12870;52.274;9.754;2023-02-28T07:10:55;0.40;;;0.40;;
24771;SDS011;12870;52.274;9.754;2023-02-28T07:13:21;0.40;;;0.40;;
24771;SDS011;12870;52.274;9.754;2023-02-28T07:15:58;0.47;;;0.47;;
24771;SDS011;12870;52.274;9.754;2023-02-28T07:18:25;0.40;;;0.40;;
24771;SDS011;12870;52.274;9.754;2023-02-28T07:20:51;0.40;;;0.40;;
24771;SDS011;12870;52.274;9.754;2023-02-28T07:23:17;0.40;;;0.40;;
24771;SDS011;12870;52.274;9.754;2023-02-28T07:25:44;0.50;;;0.50;;
24771;SDS011;12870;52.274;9.754;2023-02-28T07:28:10;0.40;;;0.40;;
24771;SDS011;12870;52.274;9.754;2023-02-28T07:30:36;0.40;;;0.40;;
24771;SDS011;12870;52.274;9.754;2023-02-28T07:33:02;0.50;;;0.50;;
24771;SDS011;12870;52.274;9.754;2023-02-28T07:35:28;0.40;;;0.40;;
24771;SDS011;12870;52.274;9.754;2023-02-28T07:37:54;0.40;;;0.40;;
24771;SDS011;12870;52.274;9.754;2023-02-28T07:40:22;0.40;;;0.40;;
24771;SDS011;12870;52.274;9.754;2023-02-28T07:42:47;0.40;;;0.40;;
24771;SDS011;12870;52.274;9.754;2023-02-28T07:45:13;0.40;;;0.40;;
24771;SDS011;12870;52.274;9.754;2023-02-28T07:47:39;0.40;;;0.40;;
24771;SDS011;12870;52.274;9.754;2023-02-28T07:50:06;0.40;;;0.40;;
24771;SDS011;12870;52.274;9.754;2023-02-28T07:52:34;0.40;;;0.40;;
24771;SDS011;12870;52.274;9.754;2023-02-28T07:55:00;0.47;;;0.47;;
24771;SDS011;12870;52.274;9.754;2023-02-28T07:57:26;0.40;;;0.40;;
24771;SDS011;12870;52.274;9.754;2023-02-28T07:59:52;0.40;;;0.40;;
24771;SDS011;12870;52.274;9.754;2023-02-28T08:02:17;0.40;;;0.40;;
24771;SDS011;12870;52.274;9.754;2023-02-28T08:04:44;0.40;;;0.40;;
24771;SDS011;12870;52.274;9.754;2023-02-28T08:07:11;0.40;;;0.40;;
24771;SDS011;12870;52.274;9.754;2023-02-28T08:09:41;0.40;;;0.40;;
24771;SDS011;12870;52.274;9.754;2023-02-28T08:12:07;0.40;;;0.40;;
24771;SDS011;12870;52.274;9.754;2023-02-28T08:14:34;0.40;;;0.40;;
24771;SDS011;12870;52.274;9.754;2023-02-28T08:17:00;0.40;;;0.40;;
24771;SDS011;12870;52.274;9.754;2023-02-28T08:19:26;0.40;;;0.40;;
24771;SDS011;12870;52.274;9.754;2023-02-28T08:21:52;0.40;;;0.40;;
24771;SDS011;12870;52.274;9.754;2023-02-28T08:24:18;0.40;;;0.40;;
24771;SDS011;12870;52.274;9.754;2023-02-28T08:26:43;0.40;;;0.40;;
24771;SDS011;12870;52.274;9.754;2023-02-28T08:29:09;0.40;;;0.40;;
24771;SDS011;12870;52.274;9.754;2023-02-28T08:31:35;0.40;;;0.40;;
24771;SDS011;12870;52.274;9.754;2023-02-28T08:34:07;0.40;;;0.40;;
24771;SDS011;12870;52.274;9.754;2023-02-28T08:36:37;0.40;;;0.40;;
24771;SDS011;12870;52.274;9.754;2023-02-28T08:39:03;0.40;;;0.40;;
24771;SDS011;12870;52.274;9.754;2023-02-28T08:41:30;0.40;;;0.40;;
24771;SDS011;12870;52.274;9.754;2023-02-28T08:43:55;0.30;;;0.30;;
24771;SDS011;12870;52.274;9.754;2023-02-28T08:46:22;0.40;;;0.40;;
24771;SDS011;12870;52.274;9.754;2023-02-28T08:48:51;0.40;;;0.40;;
24771;SDS011;12870;52.274;9.754;2023-02-28T08:51:18;0.40;;;0.40;;
24771;SDS011;12870;52.274;9.754;2023-02-28T08:53:51;0.40;;;0.40;;
24771;SDS011;12870;52.274;9.754;2023-02-28T08:56:21;0.40;;;0.40;;
24771;SDS011;12870;52.274;9.754;2023-02-28T08:58:47;0.40;;;0.40;;
24771;SDS011;12870;52.274;9.754;2023-02-28T09:01:18;0.40;;;0.40;;
24771;SDS011;12870;52.274;9.754;2023-02-28T09:03:45;0.40;;;0.40;;
24771;SDS011;12870;52.274;9.754;2023-02-28T09:06:13;0.40;;;0.40;;
24771;SDS011;12870;52.274;9.754;2023-02-28T09:08:39;0.30;;;0.30;;
24771;SDS011;12870;52.274;9.754;2023-02-28T09:11:06;0.30;;;0.30;;
24771;SDS011;12870;52.274;9.754;2023-02-28T09:13:32;0.40;;;0.40;;
24771;SDS011;12870;52.274;9.754;2023-02-28T09:16:04;0.30;;;0.30;;
24771;SDS011;12870;52.274;9.754;2023-02-28T09:18:33;0.30;;;0.30;;
24771;SDS011;12870;52.274;9.754;2023-02-28T09:21:02;0.40;;;0.40;;
24771;SDS011;12870;52.274;9.754;2023-02-28T09:23:29;0.40;;;0.40;;
24771;SDS011;12870;52.274;9.754;2023-02-28T09:25:55;0.33;;;0.33;;
24771;SDS011;12870;52.274;9.754;2023-02-28T09:28:21;0.30;;;0.30;;
24771;SDS011;12870;52.274;9.754;2023-02-28T09:30:48;0.30;;;0.30;;
24771;SDS011;12870;52.274;9.754;2023-02-28T09:33:16;0.30;;;0.30;;
24771;SDS011;12870;52.274;9.754;2023-02-28T09:35:45;0.30;;;0.30;;
24771;SDS011;12870;52.274;9.754;2023-02-28T09:38:11;0.30;;;0.30;;
24771;SDS011;12870;52.274;9.754;2023-02-28T09:40:39;0.30;;;0.30;;
24771;SDS011;12870;52.274;9.754;2023-02-28T09:43:19;0.30;;;0.30;;
24771;SDS011;12870;52.274;9.754;2023-02-28T09:45:49;0.30;;;0.30;;
24771;SDS011;12870;52.274;9.754;2023-02-28T09:48:24;0.30;;;0.30;;
24771;SDS011;12870;52.274;9.754;2023-02-28T09:50:59;0.30;;;0.30;;
24771;SDS011;12870;52.274;9.754;2023-02-28T09:53:30;0.30;;;0.30;;
24771;SDS011;12870;52.274;9.754;2023-02-28T09:56:10;0.30;;;0.30;;
24771;SDS011;12870;52.274;9.754;2023-02-28T09:58:48;0.30;;;0.30;;
24771;SDS011;12870;52.274;9.754;2023-02-28T10:01:34;0.30;;;0.30;;
24771;SDS011;12870;52.274;9.754;2023-02-28T10:06:50;0.30;;;0.30;;
24771;SDS011;12870;52.274;9.754;2023-02-28T10:11:47;0.30;;;0.30;;
24771;SDS011;12870;52.274;9.754;2023-02-28T10:14:24;0.30;;;0.30;;
24771;SDS011;12870;52.274;9.754;2023-02-28T10:16:56;0.30;;;0.30;;
24771;SDS011;12870;52.274;9.754;2023-02-28T10:22:01;0.30;;;0.30;;
24771;SDS011;12870;52.274;9.754;2023-02-28T10:24:47;0.30;;;0.30;;
24771;SDS011;12870;52.274;9.754;2023-02-28T10:27:19;0.30;;;0.30;;
24771;SDS011;12870;52.274;9.754;2023-02-28T10:29:54;0.20;;;0.20;;
24771;SDS011;12870;52.274;9.754;2023-02-28T10:32:39;0.20;;;0.20;;
24771;SDS011;12870;52.274;9.754;2023-02-28T10:35:17;0.30;;;0.30;;
24771;SDS011;12870;52.274;9.754;2023-02-28T10:37:46;0.30;;;0.30;;
24771;SDS011;12870;52.274;9.754;2023-02-28T10:42:42;0.30;;;0.30;;
24771;SDS011;12870;52.274;9.754;2023-02-28T10:45:23;0.30;;;0.30;;
24771;SDS011;12870;52.274;9.754;2023-02-28T10:47:54;0.20;;;0.20;;
24771;SDS011;12870;52.274;9.754;2023-02-28T10:55:55;0.20;;;0.20;;
24771;SDS011;12870;52.274;9.754;2023-02-28T10:58:25;0.20;;;0.20;;
24771;SDS011;12870;52.274;9.754;2023-02-28T11:00:52;0.20;;;0.20;;
24771;SDS011;12870;52.274;9.754;2023-02-28T11:03:28;0.20;;;0.20;;
24771;SDS011;12870;52.274;9.754;2023-02-28T11:05:55;0.20;;;0.20;;
24771;SDS011;12870;52.274;9.754;2023-02-28T11:08:22;0.20;;;0.20;;
24771;SDS011;12870;52.274;9.754;2023-02-28T11:10:53;0.20;;;0.20;;
24771;SDS011;12870;52.274;9.754;2023-02-28T11:13:28;0.20;;;0.20;;
24771;SDS011;12870;52.274;9.754;2023-02-28T11:16:00;0.20;;;0.20;;
24771;SDS011;12870;52.274;9.754;2023-02-28T11:18:51;0.20;;;0.20;;
24771;SDS011;12870;52.274;9.754;2023-02-28T11:21:38;0.20;;;0.20;;
24771;SDS011;12870;52.274;9.754;2023-02-28T11:26:55;0.30;;;0.30;;
24771;SDS011;12870;52.274;9.754;2023-02-28T11:37:34;0.20;;;0.20;;
24771;SDS011;12870;52.274;9.754;2023-02-28T11:40:01;0.30;;;0.30;;
24771;SDS011;12870;52.274;9.754;2023-02-28T11:45:22;0.30;;;0.30;;
24771;SDS011;12870;52.274;9.754;2023-02-28T11:48:04;0.30;;;0.30;;
24771;SDS011;12870;52.274;9.754;2023-02-28T11:56:09;0.20;;;0.20;;
24771;SDS011;12870;52.274;9.754;2023-02-28T11:58:55;0.30;;;0.30;;
24771;SDS011;12870;52.274;9.754;2023-02-28T12:07:07;0.20;;;0.20;;
24771;SDS011;12870;52.274;9.754;2023-02-28T12:17:40;0.20;;;0.20;;
24771;SDS011;12870;52.274;9.754;2023-02-28T12:26:13;0.20;;;0.20;;
24771;SDS011;12870;52.274;9.754;2023-02-28T12:28:54;0.20;;;0.20;;
24771;SDS011;12870;52.274;9.754;2023-02-28T12:31:45;0.20;;;0.20;;
24771;SDS011;12870;52.274;9.754;2023-02-28T12:34:20;0.20;;;0.20;;
24771;SDS011;12870;52.274;9.754;2023-02-28T12:36:50;0.13;;;0.13;;
24771;SDS011;12870;52.274;9.754;2023-02-28T12:39:20;0.20;;;0.20;;
24771;SDS011;12870;52.274;9.754;2023-02-28T12:41:56;0.20;;;0.20;;
24771;SDS011;12870;52.274;9.754;2023-02-28T12:44:35;0.20;;;0.20;;
24771;SDS011;12870;52.274;9.754;2023-02-28T12:47:08;0.20;;;0.20;;
24771;SDS011;12870;52.274;9.754;2023-02-28T12:49:39;0.20;;;0.20;;
24771;SDS011;12870;52.274;9.754;2023-02-28T12:52:11;0.20;;;0.20;;
24771;SDS011;12870;52.274;9.754;2023-02-28T12:57:57;0.20;;;0.20;;
24771;SDS011;12870;52.274;9.754;2023-02-28T13:00:35;0.20;;;0.20;;
24771;SDS011;12870;52.274;9.754;2023-02-28T13:03:09;0.20;;;0.20;;
24771;SDS011;12870;52.274;9.754;2023-02-28T13:06:17;0.20;;;0.20;;
24771;SDS011;12870;52.274;9.754;2023-02-28T13:09:17;0.20;;;0.20;;
24771;SDS011;12870;52.274;9.754;2023-02-28T13:16:59;0.20;;;0.20;;
24771;SDS011;12870;52.274;9.754;2023-02-28T13:19:59;0.20;;;0.20;;
24771;SDS011;12870;52.274;9.754;2023-02-28T13:24:52;0.20;;;0.20;;
24771;SDS011;12870;52.274;9.754;2023-02-28T13:38:39;0.20;;;0.20;;
24771;SDS011;12870;52.274;9.754;2023-02-28T13:46:33;0.20;;;0.20;;
24771;SDS011;12870;52.274;9.754;2023-02-28T13:51:50;0.20;;;0.20;;
24771;SDS011;12870;52.274;9.754;2023-02-28T14:05:28;0.20;;;0.20;;
24771;SDS011;12870;52.274;9.754;2023-02-28T14:07:58;0.20;;;0.20;;
24771;SDS011;12870;52.274;9.754;2023-02-28T14:10:30;0.20;;;0.20;;
24771;SDS011;12870;52.274;9.754;2023-02-28T14:20:44;0.20;;;0.20;;
24771;SDS011;12870;52.274;9.754;2023-02-28T14:23:24;0.20;;;0.20;;
24771;SDS011;12870;52.274;9.754;2023-02-28T14:35:02;0.20;;;0.20;;
24771;SDS011;12870;52.274;9.754;2023-02-28T14:37:33;0.20;;;0.20;;
24771;SDS011;12870;52.274;9.754;2023-02-28T14:40:02;0.20;;;0.20;;
24771;SDS011;12870;52.274;9.754;2023-02-28T14:42:33;0.20;;;0.20;;
24771;SDS011;12870;52.274;9.754;2023-02-28T14:45:02;0.20;;;0.20;;
24771;SDS011;12870;52.274;9.754;2023-02-28T14:47:30;0.20;;;0.20;;
24771;SDS011;12870;52.274;9.754;2023-02-28T14:49:59;0.20;;;0.20;;
24771;SDS011;12870;52.274;9.754;2023-02-28T14:52:29;0.20;;;0.20;;
24771;SDS011;12870;52.274;9.754;2023-02-28T14:54:58;0.20;;;0.20;;
24771;SDS011;12870;52.274;9.754;2023-02-28T14:57:32;0.20;;;0.20;;
24771;SDS011;12870;52.274;9.754;2023-02-28T15:00:01;0.20;;;0.20;;
24771;SDS011;12870;52.274;9.754;2023-02-28T15:02:37;0.20;;;0.20;;
24771;SDS011;12870;52.274;9.754;2023-02-28T15:07:42;0.20;;;0.20;;
24771;SDS011;12870;52.274;9.754;2023-02-28T15:15:21;0.20;;;0.20;;
24771;SDS011;12870;52.274;9.754;2023-02-28T15:17:50;0.20;;;0.20;;
24771;SDS011;12870;52.274;9.754;2023-02-28T15:20:21;0.20;;;0.20;;
24771;SDS011;12870;52.274;9.754;2023-02-28T15:22:48;0.20;;;0.20;;
24771;SDS011;12870;52.274;9.754;2023-02-28T15:25:18;0.20;;;0.20;;
24771;SDS011;12870;52.274;9.754;2023-02-28T15:27:50;0.20;;;0.20;;
24771;SDS011;12870;52.274;9.754;2023-02-28T15:30:19;0.20;;;0.20;;
24771;SDS011;12870;52.274;9.754;2023-02-28T15:33:02;0.20;;;0.20;;
24771;SDS011;12870;52.274;9.754;2023-02-28T15:35:31;0.20;;;0.20;;
24771;SDS011;12870;52.274;9.754;2023-02-28T15:38:02;0.20;;;0.20;;
24771;SDS011;12870;52.274;9.754;2023-02-28T15:40:49;0.20;;;0.20;;
24771;SDS011;12870;52.274;9.754;2023-02-28T15:43:30;0.20;;;0.20;;
24771;SDS011;12870;52.274;9.754;2023-02-28T15:48:31;0.20;;;0.20;;
24771;SDS011;12870;52.274;9.754;2023-02-28T15:51:01;0.20;;;0.20;;
24771;SDS011;12870;52.274;9.754;2023-02-28T15:53:34;0.20;;;0.20;;
24771;SDS011;12870;52.274;9.754;2023-02-28T15:56:05;0.20;;;0.20;;
24771;SDS011;12870;52.274;9.754;2023-02-28T15:58:41;0.20;;;0.20;;
24771;SDS011;12870;52.274;9.754;2023-02-28T16:01:19;0.20;;;0.20;;
24771;SDS011;12870;52.274;9.754;2023-02-28T16:03:50;0.20;;;0.20;;
24771;SDS011;12870;52.274;9.754;2023-02-28T16:08:54;0.20;;;0.20;;
24771;SDS011;12870;52.274;9.754;2023-02-28T16:11:22;0.20;;;0.20;;
24771;SDS011;12870;52.274;9.754;2023-02-28T16:13:48;0.20;;;0.20;;
24771;SDS011;12870;52.274;9.754;2023-02-28T16:16:16;0.20;;;0.20;;
24771;SDS011;12870;52.274;9.754;2023-02-28T16:18:44;0.20;;;0.20;;
24771;SDS011;12870;52.274;9.754;2023-02-28T16:21:09;0.20;;;0.20;;
24771;SDS011;12870;52.274;9.754;2023-02-28T16:23:35;0.20;;;0.20;;
24771;SDS011;12870;52.274;9.754;2023-02-28T16:26:02;0.20;;;0.20;;
24771;SDS011;12870;52.274;9.754;2023-02-28T16:28:30;0.20;;;0.20;;
24771;SDS011;12870;52.274;9.754;2023-02-28T16:31:01;0.20;;;0.20;;
24771;SDS011;12870;52.274;9.754;2023-02-28T16:33:29;0.20;;;0.20;;
24771;SDS011;12870;52.274;9.754;2023-02-28T16:35:58;0.20;;;0.20;;
24771;SDS011;12870;52.274;9.754;2023-02-28T16:38:25;0.20;;;0.20;;
24771;SDS011;12870;52.274;9.754;2023-02-28T16:40:51;0.20;;;0.20;;
24771;SDS011;12870;52.274;9.754;2023-02-28T16:43:22;0.20;;;0.20;;
24771;SDS011;12870;52.274;9.754;2023-02-28T16:45:52;0.20;;;0.20;;
24771;SDS011;12870;52.274;9.754;2023-02-28T16:48:21;0.20;;;0.20;;
24771;SDS011;12870;52.274;9.754;2023-02-28T16:50:47;0.20;;;0.20;;
24771;SDS011;12870;52.274;9.754;2023-02-28T16:53:12;0.20;;;0.20;;
24771;SDS011;12870;52.274;9.754;2023-02-28T16:55:38;0.20;;;0.20;;
24771;SDS011;12870;52.274;9.754;2023-02-28T16:58:05;0.20;;;0.20;;
24771;SDS011;12870;52.274;9.754;2023-02-28T17:00:31;0.20;;;0.20;;
24771;SDS011;12870;52.274;9.754;2023-02-28T17:02:57;0.20;;;0.20;;
24771;SDS011;12870;52.274;9.754;2023-02-28T17:05:27;0.20;;;0.20;;
24771;SDS011;12870;52.274;9.754;2023-02-28T17:07:59;0.20;;;0.20;;
24771;SDS011;12870;52.274;9.754;2023-02-28T17:10:26;0.20;;;0.20;;
24771;SDS011;12870;52.274;9.754;2023-02-28T17:12:51;0.20;;;0.20;;
24771;SDS011;12870;52.274;9.754;2023-02-28T17:15:18;0.20;;;0.20;;
24771;SDS011;12870;52.274;9.754;2023-02-28T17:17:45;0.27;;;0.27;;
24771;SDS011;12870;52.274;9.754;2023-02-28T17:20:16;0.20;;;0.20;;
24771;SDS011;12870;52.274;9.754;2023-02-28T17:22:50;0.20;;;0.20;;
24771;SDS011;12870;52.274;9.754;2023-02-28T17:25:16;0.20;;;0.20;;
24771;SDS011;12870;52.274;9.754;2023-02-28T17:27:42;0.20;;;0.20;;
24771;SDS011;12870;52.274;9.754;2023-02-28T17:30:15;0.30;;;0.30;;
24771;SDS011;12870;52.274;9.754;2023-02-28T17:32:43;0.20;;;0.20;;
24771;SDS011;12870;52.274;9.754;2023-02-28T17:35:08;0.20;;;0.20;;
24771;SDS011;12870;52.274;9.754;2023-02-28T17:37:34;0.20;;;0.20;;
24771;SDS011;12870;52.274;9.754;2023-02-28T17:40:00;0.27;;;0.27;;
24771;SDS011;12870;52.274;9.754;2023-02-28T17:42:27;0.20;;;0.20;;
24771;SDS011;12870;52.274;9.754;2023-02-28T17:44:53;0.30;;;0.30;;
24771;SDS011;12870;52.274;9.754;2023-02-28T17:47:18;0.20;;;0.20;;
24771;SDS011;12870;52.274;9.754;2023-02-28T17:49:44;0.20;;;0.20;;
24771;SDS011;12870;52.274;9.754;2023-02-28T17:52:10;0.30;;;0.30;;
24771;SDS011;12870;52.274;9.754;2023-02-28T17:54:35;0.20;;;0.20;;